createdAt,value
2022-09-04T00:01:24.652Z,14.79
2022-09-04T00:04:51.202Z,14.66
2022-09-04T00:08:12.011Z,14.60
2022-09-04T00:11:38.208Z,14.47
2022-09-04T00:15:07.811Z,14.65
2022-09-04T00:18:22.090Z,14.82
2022-09-04T00:21:44.135Z,14.92
2022-09-04T00:24:54.436Z,14.86
2022-09-04T00:28:18.160Z,14.71
2022-09-04T00:31:38.930Z,14.60
2022-09-04T00:34:46.296Z,14.65
2022-09-04T00:38:07.883Z,14.67
2022-09-04T00:41:39.162Z,14.66
2022-09-04T00:44:50.465Z,14.65
2022-09-04T00:48:23.156Z,14.71
2022-09-04T00:51:40.486Z,14.76
2022-09-04T00:54:57.617Z,14.68
2022-09-04T00:58:21.705Z,14.66
2022-09-04T01:01:26.627Z,14.80
2022-09-04T01:04:36.435Z,14.80
2022-09-04T01:07:49.172Z,14.30
2022-09-04T01:11:04.129Z,14.41
2022-09-04T01:14:26.455Z,14.48
2022-09-04T01:17:39.010Z,14.52
2022-09-04T01:20:56.819Z,14.63
2022-09-04T01:24:17.038Z,14.38
2022-09-04T01:27:43.927Z,14.44
2022-09-04T01:31:02.237Z,14.51
2022-09-04T01:34:37.524Z,14.63
2022-09-04T01:37:43.654Z,14.40
2022-09-04T01:41:16.035Z,14.51
2022-09-04T01:44:17.847Z,14.52
2022-09-04T01:47:54.282Z,14.46
2022-09-04T01:51:03.110Z,14.39
2022-09-04T01:54:30.284Z,14.33
2022-09-04T01:57:48.470Z,14.38
2022-09-04T02:01:08.327Z,14.32
2022-09-04T02:04:34.980Z,14.37
2022-09-04T02:07:56.659Z,14.18
2022-09-04T02:11:14.981Z,14.07
2022-09-04T02:14:41.087Z,14.16
2022-09-04T02:17:56.158Z,14.17
2022-09-04T02:21:17.425Z,14.13
2022-09-04T02:24:35.702Z,14.09
2022-09-04T02:27:54.142Z,14.07
2022-09-04T02:31:07.840Z,13.83
2022-09-04T02:34:43.623Z,13.86
2022-09-04T02:37:48.361Z,14.01
2022-09-04T02:41:15.751Z,14.12
2022-09-04T02:44:39.321Z,13.91
2022-09-04T02:48:18.659Z,14.02
2022-09-04T02:51:43.746Z,13.95
2022-09-04T02:55:11.274Z,14.05
2022-09-04T02:58:44.246Z,14.13
2022-09-04T03:01:59.397Z,14.13
2022-09-04T03:05:26.868Z,14.19
2022-09-04T03:08:37.209Z,14.19
2022-09-04T03:11:46.030Z,13.98
2022-09-04T03:15:11.982Z,13.78
2022-09-04T03:18:35.222Z,13.97
2022-09-04T03:21:50.545Z,13.82
2022-09-04T03:25:20.845Z,13.77
2022-09-04T03:29:01.190Z,13.78
2022-09-04T03:32:16.909Z,13.78
2022-09-04T03:35:23.532Z,13.70
2022-09-04T03:38:28.852Z,13.68
2022-09-04T03:41:38.951Z,13.75
2022-09-04T03:45:08.651Z,13.80
2022-09-04T03:48:23.359Z,13.59
2022-09-04T03:51:55.940Z,13.84
2022-09-04T03:55:05.951Z,13.70
2022-09-04T03:58:41.659Z,13.70
2022-09-04T04:02:14.986Z,13.48
2022-09-04T04:05:42.140Z,13.62
2022-09-04T04:09:14.656Z,13.47
2022-09-04T04:12:59.968Z,13.46
2022-09-04T04:16:31.293Z,13.66
2022-09-04T04:19:45.494Z,13.58
2022-09-04T04:23:05.820Z,13.59
2022-09-04T04:26:50.593Z,13.77
2022-09-04T04:30:04.723Z,13.49
2022-09-04T04:33:22.733Z,13.52
2022-09-04T04:36:48.509Z,13.69
2022-09-04T04:40:01.993Z,13.41
2022-09-04T04:43:23.428Z,13.46
2022-09-04T04:46:56.056Z,13.55
2022-09-04T04:50:03.345Z,13.76
2022-09-04T04:53:23.788Z,13.81
2022-09-04T04:56:46.467Z,13.63
2022-09-04T05:00:27.651Z,13.73
2022-09-04T05:03:54.463Z,13.53
2022-09-04T05:07:14.804Z,13.72
2022-09-04T05:10:42.787Z,13.74
2022-09-04T05:14:29.386Z,14.06
2022-09-04T05:17:42.233Z,14.23
2022-09-04T05:20:57.303Z,14.34
2022-09-04T05:24:02.633Z,14.52
2022-09-04T05:27:18.835Z,14.63
2022-09-04T05:30:31.113Z,14.66
2022-09-04T05:33:51.728Z,14.89
2022-09-04T05:37:26.147Z,15.08
2022-09-04T05:40:33.163Z,15.18
2022-09-04T05:43:46.725Z,15.49
2022-09-04T05:47:00.665Z,15.66
2022-09-04T05:50:32.025Z,15.71
2022-09-04T05:53:58.002Z,15.76
2022-09-04T05:57:29.876Z,15.85
2022-09-04T06:00:58.957Z,16.15
2022-09-04T06:04:12.498Z,16.27
2022-09-04T06:07:17.333Z,16.27
2022-09-04T06:10:43.827Z,16.37
2022-09-04T06:13:54.735Z,16.15
2022-09-04T06:17:23.100Z,16.39
2022-09-04T06:20:46.146Z,16.76
2022-09-04T06:23:59.807Z,16.63
2022-09-04T06:27:23.581Z,16.14
2022-09-04T06:30:31.096Z,16.65
2022-09-04T06:34:06.182Z,16.52
2022-09-04T06:37:14.050Z,16.73
2022-09-04T06:40:48.560Z,16.72
2022-09-04T06:44:24.272Z,17.00
2022-09-04T06:47:31.599Z,16.87
2022-09-04T06:50:45.706Z,17.05
2022-09-04T06:53:59.245Z,17.15
2022-09-04T06:57:30.041Z,17.45
2022-09-04T07:00:43.651Z,17.80
2022-09-04T07:04:03.726Z,18.37
2022-09-04T07:07:24.970Z,19.02
2022-09-04T07:10:42.950Z,19.19
2022-09-04T07:13:50.545Z,20.22
2022-09-04T07:17:11.398Z,20.20
2022-09-04T07:20:25.407Z,20.61
2022-09-04T07:24:03.022Z,20.90
2022-09-04T07:27:35.251Z,22.17
2022-09-04T07:30:56.727Z,22.73
2022-09-04T07:34:21.663Z,22.71
2022-09-04T07:37:47.893Z,22.60
2022-09-04T07:41:11.367Z,22.56
2022-09-04T07:44:38.639Z,23.09
2022-09-04T07:47:47.073Z,22.73
2022-09-04T07:50:58.195Z,22.72
2022-09-04T07:54:36.648Z,23.16
2022-09-04T07:57:47.086Z,23.84
2022-09-04T08:01:23.366Z,24.82
2022-09-04T08:04:51.822Z,24.43
2022-09-04T08:08:18.451Z,23.30
2022-09-04T08:11:32.514Z,23.04
2022-09-04T08:14:53.937Z,23.64
2022-09-04T08:18:20.356Z,23.27
2022-09-04T08:21:35.865Z,23.18
2022-09-04T08:24:40.664Z,23.48
2022-09-04T08:28:06.791Z,22.79
2022-09-04T08:31:25.619Z,22.52
2022-09-04T08:34:46.218Z,22.94
2022-09-04T08:37:57.098Z,22.92
2022-09-04T08:41:20.501Z,22.81
2022-09-04T08:44:46.829Z,23.20
2022-09-04T08:48:26.359Z,23.13
2022-09-04T08:52:00.164Z,22.79
2022-09-04T08:55:18.170Z,22.81
2022-09-04T08:58:55.298Z,22.33
2022-09-04T09:02:08.035Z,22.16
2022-09-04T09:05:37.699Z,22.81
2022-09-04T09:09:16.712Z,23.72
2022-09-04T09:12:40.674Z,23.87
2022-09-04T09:16:22.153Z,24.65
2022-09-04T09:19:43.468Z,24.53
2022-09-04T09:23:36.721Z,24.29
2022-09-04T09:27:05.894Z,24.66
2022-09-04T09:30:13.306Z,26.13
2022-09-04T09:33:20.624Z,25.99
2022-09-04T09:36:25.116Z,27.89
2022-09-04T09:39:38.970Z,28.90
2022-09-04T09:42:49.519Z,27.82
2022-09-04T09:46:13.669Z,27.40
2022-09-04T09:49:32.169Z,26.66
2022-09-04T09:53:11.244Z,26.77
2022-09-04T09:56:41.059Z,26.05
2022-09-04T10:00:12.588Z,26.35
2022-09-04T10:03:46.766Z,25.46
2022-09-04T10:07:10.765Z,26.69
2022-09-04T10:10:46.585Z,27.25
2022-09-04T10:14:13.352Z,26.64
2022-09-04T10:17:42.909Z,26.57
2022-09-04T10:21:10.606Z,26.77
2022-09-04T10:24:18.357Z,27.18
2022-09-04T10:27:28.931Z,27.01
2022-09-04T10:30:52.015Z,26.55
2022-09-04T10:34:10.509Z,26.33
2022-09-04T10:37:43.196Z,26.70
2022-09-04T10:41:30.161Z,26.57
2022-09-04T10:45:09.660Z,25.36
2022-09-04T10:48:29.570Z,25.32
2022-09-04T10:51:50.565Z,25.61
2022-09-04T10:55:20.699Z,25.99
2022-09-04T10:58:40.287Z,26.06
2022-09-04T11:01:53.565Z,25.30
2022-09-04T11:05:19.607Z,24.85
2022-09-04T11:08:24.394Z,25.00
2022-09-04T11:11:28.751Z,24.44
2022-09-04T11:14:49.869Z,24.68
2022-09-04T11:18:34.365Z,24.96
2022-09-04T11:21:38.839Z,25.00
2022-09-04T11:25:04.297Z,24.51
2022-09-04T11:28:47.825Z,24.86
2022-09-04T11:32:18.747Z,24.88
2022-09-04T11:35:49.188Z,24.66
2022-09-04T11:39:16.533Z,24.57
2022-09-04T11:42:25.562Z,24.30
2022-09-04T11:45:39.125Z,24.24
2022-09-04T11:49:09.436Z,24.44
2022-09-04T11:52:14.539Z,24.55
2022-09-04T11:55:25.418Z,24.66
2022-09-04T11:58:44.549Z,25.32
2022-09-04T12:02:06.542Z,24.47
2022-09-04T12:05:45.927Z,24.42
2022-09-04T12:09:02.759Z,24.70
2022-09-04T12:12:22.919Z,25.28
2022-09-04T12:15:47.344Z,25.56
2022-09-04T12:19:05.488Z,25.63
2022-09-04T12:22:16.257Z,25.83
2022-09-04T12:25:36.681Z,25.42
2022-09-04T12:28:58.445Z,25.43
2022-09-04T12:32:21.825Z,25.36
2022-09-04T12:35:39.653Z,24.64
2022-09-04T12:39:20.494Z,24.43
2022-09-04T12:43:05.870Z,24.28
2022-09-04T12:46:17.102Z,23.76
2022-09-04T12:49:18.674Z,24.17
2022-09-04T12:52:23.607Z,23.68
2022-09-04T12:55:52.951Z,23.76
2022-09-04T12:59:19.048Z,23.52
2022-09-04T13:02:28.000Z,23.71
2022-09-04T13:05:52.990Z,23.72
2022-09-04T13:09:12.451Z,23.41
2022-09-04T13:12:41.867Z,23.51
2022-09-04T13:15:58.105Z,23.36
2022-09-04T13:19:09.034Z,23.58
2022-09-04T13:22:30.913Z,23.37
2022-09-04T13:26:02.432Z,23.61
2022-09-04T13:29:16.511Z,23.60
2022-09-04T13:32:43.839Z,23.70
2022-09-04T13:36:49.701Z,23.71
2022-09-04T13:40:05.159Z,23.95
2022-09-04T13:46:49.730Z,25.33
2022-09-04T13:50:17.362Z,25.25
2022-09-04T13:53:34.086Z,24.65
2022-09-04T13:56:50.815Z,24.95
2022-09-04T14:00:00.503Z,25.06
2022-09-04T14:03:10.755Z,26.45
2022-09-04T14:06:16.872Z,25.97
2022-09-04T14:09:18.694Z,26.60
2022-09-04T14:12:41.239Z,27.07
2022-09-04T14:15:58.404Z,26.78
2022-09-04T14:19:33.009Z,26.19
2022-09-04T14:22:49.446Z,24.80
2022-09-04T14:26:11.512Z,24.04
2022-09-04T14:29:54.963Z,24.77
2022-09-04T14:33:19.040Z,24.55
2022-09-04T14:36:40.680Z,24.90
2022-09-04T14:39:57.946Z,24.80
2022-09-04T14:43:15.002Z,24.88
2022-09-04T14:46:42.492Z,24.74
2022-09-04T14:49:49.574Z,24.56
2022-09-04T14:52:58.051Z,25.03
2022-09-04T14:56:19.394Z,25.18
2022-09-04T14:59:35.798Z,24.77
2022-09-04T15:02:47.664Z,25.67
2022-09-04T15:06:01.754Z,25.29
2022-09-04T15:09:29.058Z,24.91
2022-09-04T15:12:36.726Z,25.01
2022-09-04T15:15:47.418Z,24.69
2022-09-04T15:19:05.562Z,23.55
2022-09-04T15:22:32.450Z,23.59
2022-09-04T15:25:59.784Z,23.39
2022-09-04T15:29:28.512Z,23.32
2022-09-04T15:32:42.679Z,23.20
2022-09-04T15:35:58.979Z,23.23
2022-09-04T15:39:04.977Z,23.39
2022-09-04T15:42:12.475Z,23.41
2022-09-04T15:45:25.868Z,23.13
2022-09-04T15:48:55.057Z,23.18
2022-09-04T15:52:10.517Z,23.04
2022-09-04T15:55:26.406Z,22.96
2022-09-04T15:59:01.798Z,23.01
2022-09-04T16:02:25.119Z,23.22
2022-09-04T16:05:41.351Z,22.89
2022-09-04T16:09:20.895Z,22.72
2022-09-04T16:12:39.049Z,22.71
2022-09-04T16:15:45.173Z,22.47
2022-09-04T16:18:46.878Z,22.40
2022-09-04T16:21:55.816Z,22.38
2022-09-04T16:25:07.984Z,22.43
2022-09-04T16:28:34.440Z,22.43
2022-09-04T16:31:36.934Z,22.42
2022-09-04T16:35:12.034Z,22.38
2022-09-04T16:38:24.051Z,22.27
2022-09-04T16:41:38.656Z,22.20
2022-09-04T16:44:45.512Z,22.09
2022-09-04T16:47:54.623Z,22.11
2022-09-04T16:51:41.413Z,21.97
2022-09-04T16:54:49.183Z,21.93
2022-09-04T16:58:02.925Z,21.81
2022-09-04T17:01:14.146Z,21.88
2022-09-04T17:04:24.531Z,21.70
2022-09-04T17:07:38.606Z,21.67
2022-09-04T17:10:41.544Z,21.36
2022-09-04T17:13:52.477Z,21.16
2022-09-04T17:17:29.886Z,21.00
2022-09-04T17:24:10.751Z,20.82
2022-09-04T17:29:13.814Z,20.60
2022-09-04T17:29:14.375Z,20.68
2022-09-04T17:31:45.327Z,20.56
2022-09-04T17:40:36.455Z,20.41
2022-09-04T17:40:44.351Z,20.56
2022-09-04T17:42:30.561Z,20.34
2022-09-04T17:46:10.889Z,20.31
2022-09-04T17:49:20.488Z,20.42
2022-09-04T17:52:30.204Z,20.37
2022-09-04T17:55:47.475Z,20.29
2022-09-04T17:59:00.224Z,20.35
2022-09-04T18:02:12.700Z,20.33
2022-09-04T18:05:34.676Z,20.32
2022-09-04T18:08:57.464Z,20.27
2022-09-04T18:12:19.822Z,20.22
2022-09-04T18:15:34.268Z,20.01
2022-09-04T18:18:47.174Z,19.94
2022-09-04T18:22:15.746Z,19.89
2022-09-04T18:25:25.205Z,19.82
2022-09-04T18:28:38.826Z,19.76
2022-09-04T18:36:11.884Z,19.62
2022-09-04T18:37:08.883Z,19.65
2022-09-04T18:39:41.284Z,19.48
2022-09-04T18:50:25.691Z,19.37
2022-09-04T18:50:36.799Z,19.19
2022-09-04T18:50:45.369Z,19.06
2022-09-04T18:53:32.689Z,18.96
2022-09-04T18:56:43.304Z,18.86
2022-09-04T18:59:54.126Z,18.87
2022-09-04T19:03:16.687Z,18.84
2022-09-04T19:06:33.091Z,18.71
2022-09-04T19:09:58.784Z,18.66
2022-09-04T19:13:12.891Z,18.46
2022-09-04T19:16:25.737Z,18.38
2022-09-04T19:19:50.275Z,18.42
2022-09-04T19:22:59.215Z,18.41
2022-09-04T19:26:26.474Z,18.37
2022-09-04T19:29:51.589Z,18.30
2022-09-04T19:33:10.093Z,18.22
2022-09-04T19:36:39.445Z,18.16
2022-09-04T19:45:57.692Z,18.09
2022-09-04T19:46:16.094Z,18.06
2022-09-04T19:46:48.152Z,18.08
2022-09-04T19:53:22.725Z,18.09
2022-09-04T19:53:33.616Z,18.07
2022-09-04T19:56:56.604Z,18.04
2022-09-04T20:00:31.143Z,18.04
2022-09-04T20:04:00.518Z,18.12
2022-09-04T20:07:11.440Z,18.14
2022-09-04T20:10:38.775Z,18.16
2022-09-04T20:13:51.043Z,18.17
2022-09-04T20:16:58.083Z,18.17
2022-09-04T20:20:06.307Z,18.20
2022-09-04T20:23:34.769Z,18.19
2022-09-04T20:26:56.625Z,18.15
2022-09-04T20:30:16.545Z,18.09
2022-09-04T20:33:23.990Z,18.04
2022-09-04T20:36:32.743Z,18.03
2022-09-04T20:39:43.754Z,18.07
2022-09-04T20:43:15.006Z,17.97
2022-09-04T20:48:49.732Z,17.84
2022-09-04T20:52:59.019Z,17.75
2022-09-04T20:54:15.126Z,17.62
2022-09-04T21:00:56.074Z,17.58
2022-09-04T21:03:20.991Z,17.46
2022-09-04T21:04:42.801Z,17.41
2022-09-04T21:07:52.599Z,17.33
2022-09-04T21:11:14.827Z,17.23
2022-09-04T21:14:45.361Z,17.05
2022-09-04T21:18:34.436Z,17.07
2022-09-04T21:21:53.970Z,17.12
2022-09-04T21:25:02.934Z,17.09
2022-09-04T21:28:26.742Z,17.12
2022-09-04T21:31:44.615Z,17.17
2022-09-04T21:35:20.453Z,17.16
2022-09-04T21:38:40.714Z,17.19
2022-09-04T21:41:53.275Z,17.15
2022-09-04T21:45:14.027Z,17.11
2022-09-04T21:48:31.659Z,17.07
2022-09-04T21:51:43.599Z,17.10
2022-09-04T21:57:05.546Z,17.11
2022-09-04T22:02:32.303Z,17.17
2022-09-04T22:02:51.408Z,17.62
2022-09-04T22:06:31.392Z,17.79
2022-09-04T22:13:26.512Z,17.57
2022-09-04T22:13:49.813Z,17.53
2022-09-04T22:17:10.824Z,17.93
2022-09-04T22:20:13.297Z,17.91
2022-09-04T22:23:52.545Z,17.98
2022-09-04T22:27:31.891Z,17.69
2022-09-04T22:30:51.868Z,17.98
2022-09-04T22:34:15.801Z,17.71
2022-09-04T22:37:22.082Z,17.46
2022-09-04T22:40:56.583Z,17.32
2022-09-04T22:44:17.110Z,17.13
2022-09-04T22:47:48.346Z,17.19
2022-09-04T22:51:04.557Z,17.25
2022-09-04T22:54:11.982Z,17.29
2022-09-04T22:57:23.549Z,17.26
2022-09-04T23:00:25.613Z,17.28
2022-09-04T23:04:08.765Z,17.27
2022-09-04T23:13:47.608Z,17.20
2022-09-04T23:13:53.252Z,17.19
2022-09-04T23:14:47.043Z,17.14
2022-09-04T23:19:23.777Z,17.23
2022-09-04T23:26:41.690Z,17.24
2022-09-04T23:26:49.025Z,17.27
2022-09-04T23:28:40.902Z,17.36
2022-09-04T23:32:22.541Z,17.33
2022-09-04T23:35:50.567Z,17.30
2022-09-04T23:38:57.972Z,17.41
2022-09-04T23:42:13.791Z,17.36
2022-09-04T23:46:01.723Z,17.38
2022-09-04T23:49:16.010Z,17.66
2022-09-04T23:52:27.007Z,17.57
2022-09-04T23:55:49.385Z,17.64
2022-09-04T23:59:25.527Z,17.35
